sensor_id;sensor_type;location;lat;lon;timestamp;pressure;altitude;pressure_sealevel;temperature;humidity
31331;BME280;34067;39.548;-76.088;2022-11-03T00:00:40;102578.97;;;15.60;65.30
31331;BME280;34067;39.548;-76.088;2022-11-03T00:03:08;102577.94;;;15.86;63.80
31331;BME280;34067;39.548;-76.088;2022-11-03T00:05:36;102575.74;;;16.13;63.71
31331;BME280;34067;39.548;-76.088;2022-11-03T00:08:05;102573.29;;;16.06;64.37
31331;BME280;34067;39.548;-76.088;2022-11-03T00:10:33;102572.01;;;15.58;64.15
31331;BME280;34067;39.548;-76.088;2022-11-03T00:13:01;102570.83;;;15.74;63.90
31331;BME280;34067;39.548;-76.088;2022-11-03T00:15:29;102575.73;;;14.27;65.12
31331;BME280;34067;39.548;-76.088;2022-11-03T00:17:57;102572.82;;;15.57;63.63
31331;BME280;34067;39.548;-76.088;2022-11-03T00:20:25;102575.32;;;15.03;64.72
31331;BME280;34067;39.548;-76.088;2022-11-03T00:22:53;102578.50;;;15.27;64.12
31331;BME280;34067;39.548;-76.088;2022-11-03T00:25:21;102581.52;;;15.66;63.37
31331;BME280;34067;39.548;-76.088;2022-11-03T00:27:54;102581.64;;;15.76;63.56
31331;BME280;34067;39.548;-76.088;2022-11-03T00:30:22;102587.20;;;15.09;65.26
31331;BME280;34067;39.548;-76.088;2022-11-03T00:32:50;102585.82;;;15.24;65.00
31331;BME280;34067;39.548;-76.088;2022-11-03T00:35:18;102593.03;;;14.74;65.32
31331;BME280;34067;39.548;-76.088;2022-11-03T00:37:45;102596.71;;;15.05;65.06
31331;BME280;34067;39.548;-76.088;2022-11-03T00:40:13;102603.26;;;14.68;65.38
31331;BME280;34067;39.548;-76.088;2022-11-03T00:42:41;102603.20;;;14.92;64.97
31331;BME280;34067;39.548;-76.088;2022-11-03T00:45:09;102602.21;;;14.59;65.75
31331;BME280;34067;39.548;-76.088;2022-11-03T00:47:37;102601.56;;;13.42;69.48
31331;BME280;34067;39.548;-76.088;2022-11-03T00:50:06;102602.87;;;13.91;67.67
31331;BME280;34067;39.548;-76.088;2022-11-03T00:52:34;102608.86;;;12.09;74.38
31331;BME280;34067;39.548;-76.088;2022-11-03T00:55:02;102608.43;;;13.17;75.95
31331;BME280;34067;39.548;-76.088;2022-11-03T00:57:29;102612.87;;;12.04;82.84
31331;BME280;34067;39.548;-76.088;2022-11-03T00:59:57;102614.05;;;11.85;93.39
31331;BME280;34067;39.548;-76.088;2022-11-03T01:02:25;102616.46;;;11.63;93.10
31331;BME280;34067;39.548;-76.088;2022-11-03T01:04:53;102616.31;;;11.48;96.15
31331;BME280;34067;39.548;-76.088;2022-11-03T01:07:21;102615.55;;;12.07;96.61
31331;BME280;34067;39.548;-76.088;2022-11-03T01:09:49;102614.77;;;11.38;98.81
31331;BME280;34067;39.548;-76.088;2022-11-03T01:12:18;102615.11;;;11.14;100.00
31331;BME280;34067;39.548;-76.088;2022-11-03T01:14:48;102614.63;;;10.85;100.00
31331;BME280;34067;39.548;-76.088;2022-11-03T01:17:18;102615.54;;;11.17;96.19
31331;BME280;34067;39.548;-76.088;2022-11-03T01:19:47;102615.51;;;11.31;95.93
31331;BME280;34067;39.548;-76.088;2022-11-03T01:22:16;102613.84;;;10.89;92.23
31331;BME280;34067;39.548;-76.088;2022-11-03T01:24:44;102617.17;;;11.53;95.14
31331;BME280;34067;39.548;-76.088;2022-11-03T01:27:13;102619.26;;;10.17;97.77
31331;BME280;34067;39.548;-76.088;2022-11-03T01:29:42;102622.36;;;11.69;97.12
31331;BME280;34067;39.548;-76.088;2022-11-03T01:32:11;102624.12;;;11.58;98.67
31331;BME280;34067;39.548;-76.088;2022-11-03T01:34:39;102628.77;;;11.52;100.00
31331;BME280;34067;39.548;-76.088;2022-11-03T01:37:07;102626.23;;;11.28;96.26
31331;BME280;34067;39.548;-76.088;2022-11-03T01:39:35;102633.84;;;10.77;95.24
31331;BME280;34067;39.548;-76.088;2022-11-03T01:42:03;102632.70;;;11.90;93.98
31331;BME280;34067;39.548;-76.088;2022-11-03T01:44:34;102630.46;;;11.10;99.15
31331;BME280;34067;39.548;-76.088;2022-11-03T01:47:11;102632.53;;;11.77;96.77
31331;BME280;34067;39.548;-76.088;2022-11-03T01:49:45;102637.47;;;11.37;96.76
31331;BME280;34067;39.548;-76.088;2022-11-03T01:52:17;102641.55;;;10.67;98.19
31331;BME280;34067;39.548;-76.088;2022-11-03T01:54:51;102636.39;;;11.82;95.10
31331;BME280;34067;39.548;-76.088;2022-11-03T01:57:27;102646.18;;;12.29;93.73
31331;BME280;34067;39.548;-76.088;2022-11-03T01:59:57;102652.47;;;13.41;87.82
31331;BME280;34067;39.548;-76.088;2022-11-03T02:02:27;102650.39;;;13.68;83.10
31331;BME280;34067;39.548;-76.088;2022-11-03T02:04:57;102662.94;;;13.11;81.92
31331;BME280;34067;39.548;-76.088;2022-11-03T02:07:32;102669.61;;;13.05;79.35
31331;BME280;34067;39.548;-76.088;2022-11-03T02:10:03;102670.49;;;13.70;78.22
31331;BME280;34067;39.548;-76.088;2022-11-03T02:12:32;102669.84;;;12.99;76.73
31331;BME280;34067;39.548;-76.088;2022-11-03T02:15:04;102665.57;;;14.08;73.59
31331;BME280;34067;39.548;-76.088;2022-11-03T02:17:33;102664.08;;;14.75;71.78
31331;BME280;34067;39.548;-76.088;2022-11-03T02:20:05;102665.46;;;14.02;73.37
31331;BME280;34067;39.548;-76.088;2022-11-03T02:23:43;102670.81;;;13.53;73.08
31331;BME280;34067;39.548;-76.088;2022-11-03T02:26:16;102678.62;;;14.86;69.69
31331;BME280;34067;39.548;-76.088;2022-11-03T02:28:44;102681.35;;;14.13;71.29
31331;BME280;34067;39.548;-76.088;2022-11-03T02:31:16;102682.37;;;15.12;71.32
31331;BME280;34067;39.548;-76.088;2022-11-03T02:33:54;102682.01;;;14.64;73.15
31331;BME280;34067;39.548;-76.088;2022-11-03T02:36:26;102683.23;;;15.10;71.76
31331;BME280;34067;39.548;-76.088;2022-11-03T02:38:59;102681.23;;;14.85;70.87
31331;BME280;34067;39.548;-76.088;2022-11-03T02:41:32;102682.52;;;14.14;72.75
31331;BME280;34067;39.548;-76.088;2022-11-03T02:44:02;102680.48;;;13.90;73.55
31331;BME280;34067;39.548;-76.088;2022-11-03T02:46:32;102679.46;;;13.72;74.16
31331;BME280;34067;39.548;-76.088;2022-11-03T02:49:01;102687.39;;;12.98;79.89
31331;BME280;34067;39.548;-76.088;2022-11-03T02:51:29;102687.43;;;13.30;79.33
31331;BME280;34067;39.548;-76.088;2022-11-03T02:54:04;102686.11;;;13.69;77.14
31331;BME280;34067;39.548;-76.088;2022-11-03T02:56:36;102685.12;;;13.70;77.15
31331;BME280;34067;39.548;-76.088;2022-11-03T02:59:08;102692.66;;;13.26;79.24
31331;BME280;34067;39.548;-76.088;2022-11-03T03:01:40;102687.88;;;13.95;79.86
31331;BME280;34067;39.548;-76.088;2022-11-03T03:04:09;102696.33;;;13.44;79.33
31331;BME280;34067;39.548;-76.088;2022-11-03T03:06:42;102699.28;;;13.74;78.95
31331;BME280;34067;39.548;-76.088;2022-11-03T03:09:16;102701.91;;;13.57;77.92
31331;BME280;34067;39.548;-76.088;2022-11-03T03:11:46;102704.82;;;13.71;77.83
31331;BME280;34067;39.548;-76.088;2022-11-03T03:14:17;102708.42;;;13.69;76.31
31331;BME280;34067;39.548;-76.088;2022-11-03T03:16:50;102703.85;;;14.23;75.41
31331;BME280;34067;39.548;-76.088;2022-11-03T03:19:31;102703.44;;;13.94;75.02
31331;BME280;34067;39.548;-76.088;2022-11-03T03:22:09;102699.83;;;13.72;73.71
31331;BME280;34067;39.548;-76.088;2022-11-03T03:24:45;102704.16;;;13.79;73.28
31331;BME280;34067;39.548;-76.088;2022-11-03T03:27:16;102704.65;;;13.75;72.84
31331;BME280;34067;39.548;-76.088;2022-11-03T03:29:51;102706.68;;;12.89;74.17
31331;BME280;34067;39.548;-76.088;2022-11-03T03:32:24;102707.16;;;12.49;73.81
31331;BME280;34067;39.548;-76.088;2022-11-03T03:34:54;102709.86;;;13.38;75.79
31331;BME280;34067;39.548;-76.088;2022-11-03T03:37:24;102711.99;;;13.32;75.89
31331;BME280;34067;39.548;-76.088;2022-11-03T03:39:56;102711.35;;;13.43;75.31
31331;BME280;34067;39.548;-76.088;2022-11-03T03:42:28;102711.07;;;12.72;77.43
31331;BME280;34067;39.548;-76.088;2022-11-03T03:44:58;102710.89;;;13.34;77.19
31331;BME280;34067;39.548;-76.088;2022-11-03T03:47:29;102714.01;;;12.95;77.71
31331;BME280;34067;39.548;-76.088;2022-11-03T03:49:58;102714.59;;;13.12;78.58
31331;BME280;34067;39.548;-76.088;2022-11-03T03:52:26;102718.32;;;12.90;81.17
31331;BME280;34067;39.548;-76.088;2022-11-03T03:54:55;102721.52;;;13.15;79.98
31331;BME280;34067;39.548;-76.088;2022-11-03T03:57:23;102721.70;;;13.03;80.20
31331;BME280;34067;39.548;-76.088;2022-11-03T03:59:53;102716.86;;;12.01;81.51
31331;BME280;34067;39.548;-76.088;2022-11-03T04:02:21;102723.72;;;13.11;79.65
31331;BME280;34067;39.548;-76.088;2022-11-03T04:04:49;102725.27;;;12.51;79.31
31331;BME280;34067;39.548;-76.088;2022-11-03T04:07:17;102724.38;;;12.30;80.01
31331;BME280;34067;39.548;-76.088;2022-11-03T04:09:45;102722.40;;;12.78;80.09
31331;BME280;34067;39.548;-76.088;2022-11-03T04:12:13;102726.95;;;13.04;78.81
31331;BME280;34067;39.548;-76.088;2022-11-03T04:14:41;102726.01;;;11.88;82.53
31331;BME280;34067;39.548;-76.088;2022-11-03T04:17:18;102726.26;;;12.38;81.56
31331;BME280;34067;39.548;-76.088;2022-11-03T04:19:46;102724.56;;;12.04;82.87
31331;BME280;34067;39.548;-76.088;2022-11-03T04:22:14;102722.62;;;13.43;81.20
31331;BME280;34067;39.548;-76.088;2022-11-03T04:24:42;102721.22;;;11.99;82.07
31331;BME280;34067;39.548;-76.088;2022-11-03T04:27:24;102718.45;;;12.33;84.01
31331;BME280;34067;39.548;-76.088;2022-11-03T04:29:57;102718.77;;;12.77;83.18
31331;BME280;34067;39.548;-76.088;2022-11-03T04:32:28;102717.76;;;12.24;85.93
31331;BME280;34067;39.548;-76.088;2022-11-03T04:34:56;102713.17;;;12.34;85.99
31331;BME280;34067;39.548;-76.088;2022-11-03T04:37:26;102711.23;;;11.78;87.40
31331;BME280;34067;39.548;-76.088;2022-11-03T04:39:58;102714.64;;;10.88;89.41
31331;BME280;34067;39.548;-76.088;2022-11-03T04:42:28;102716.12;;;10.87;90.79
31331;BME280;34067;39.548;-76.088;2022-11-03T04:45:01;102714.86;;;10.97;91.12
31331;BME280;34067;39.548;-76.088;2022-11-03T04:47:39;102711.88;;;10.29;92.03
31331;BME280;34067;39.548;-76.088;2022-11-03T04:50:16;102709.83;;;10.59;94.56
31331;BME280;34067;39.548;-76.088;2022-11-03T04:52:46;102710.78;;;11.01;95.05
31331;BME280;34067;39.548;-76.088;2022-11-03T04:55:15;102713.09;;;11.01;96.87
31331;BME280;34067;39.548;-76.088;2022-11-03T04:57:44;102714.50;;;10.09;100.00
31331;BME280;34067;39.548;-76.088;2022-11-03T05:03:15;102721.75;;;9.04;100.00
31331;BME280;34067;39.548;-76.088;2022-11-03T05:05:43;102717.73;;;9.89;100.00
31331;BME280;34067;39.548;-76.088;2022-11-03T05:08:12;102717.48;;;10.04;100.00
31331;BME280;34067;39.548;-76.088;2022-11-03T05:10:40;102714.66;;;11.13;100.00
31331;BME280;34067;39.548;-76.088;2022-11-03T05:13:16;102722.03;;;8.79;100.00
31331;BME280;34067;39.548;-76.088;2022-11-03T05:15:47;102715.76;;;11.17;100.00
31331;BME280;34067;39.548;-76.088;2022-11-03T05:18:19;102712.34;;;9.76;100.00
31331;BME280;34067;39.548;-76.088;2022-11-03T05:20:51;102708.85;;;11.19;100.00
31331;BME280;34067;39.548;-76.088;2022-11-03T05:23:20;102716.58;;;10.91;100.00
31331;BME280;34067;39.548;-76.088;2022-11-03T05:25:51;102710.35;;;10.05;100.00
31331;BME280;34067;39.548;-76.088;2022-11-03T05:28:23;102704.16;;;10.22;100.00
31331;BME280;34067;39.548;-76.088;2022-11-03T05:30:53;102699.95;;;10.91;100.00
31331;BME280;34067;39.548;-76.088;2022-11-03T05:33:25;102696.73;;;10.69;100.00
31331;BME280;34067;39.548;-76.088;2022-11-03T05:35:55;102695.92;;;10.10;100.00
31331;BME280;34067;39.548;-76.088;2022-11-03T05:38:26;102693.57;;;9.57;100.00
31331;BME280;34067;39.548;-76.088;2022-11-03T05:40:56;102689.04;;;9.81;100.00
31331;BME280;34067;39.548;-76.088;2022-11-03T05:43:25;102687.49;;;9.76;100.00
31331;BME280;34067;39.548;-76.088;2022-11-03T05:45:56;102686.54;;;9.26;100.00
31331;BME280;34067;39.548;-76.088;2022-11-03T05:48:30;102685.52;;;8.94;100.00
31331;BME280;34067;39.548;-76.088;2022-11-03T05:51:00;102690.24;;;8.34;100.00
31331;BME280;34067;39.548;-76.088;2022-11-03T05:53:31;102687.86;;;8.45;100.00
31331;BME280;34067;39.548;-76.088;2022-11-03T05:56:04;102682.32;;;8.97;100.00
31331;BME280;34067;39.548;-76.088;2022-11-03T05:58:36;102676.12;;;9.26;100.00
31331;BME280;34067;39.548;-76.088;2022-11-03T06:01:11;102678.53;;;8.90;100.00
31331;BME280;34067;39.548;-76.088;2022-11-03T06:03:40;102680.78;;;8.65;100.00
31331;BME280;34067;39.548;-76.088;2022-11-03T06:06:17;102682.12;;;8.64;100.00
31331;BME280;34067;39.548;-76.088;2022-11-03T06:08:46;102682.97;;;8.25;100.00
31331;BME280;34067;39.548;-76.088;2022-11-03T06:11:26;102687.62;;;7.38;100.00
31331;BME280;34067;39.548;-76.088;2022-11-03T06:13:57;102688.17;;;8.27;100.00
31331;BME280;34067;39.548;-76.088;2022-11-03T06:16:35;102689.22;;;7.72;100.00
31331;BME280;34067;39.548;-76.088;2022-11-03T06:19:18;102684.82;;;9.61;100.00
31331;BME280;34067;39.548;-76.088;2022-11-03T06:21:48;102690.97;;;7.79;100.00
31331;BME280;34067;39.548;-76.088;2022-11-03T06:24:19;102694.43;;;8.85;100.00
31331;BME280;34067;39.548;-76.088;2022-11-03T06:26:49;102691.59;;;8.04;100.00
31331;BME280;34067;39.548;-76.088;2022-11-03T06:29:19;102693.05;;;7.47;100.00
31331;BME280;34067;39.548;-76.088;2022-11-03T06:31:49;102695.47;;;8.68;100.00
31331;BME280;34067;39.548;-76.088;2022-11-03T06:34:31;102694.55;;;8.26;100.00
31331;BME280;34067;39.548;-76.088;2022-11-03T06:37:10;102691.45;;;8.25;100.00
31331;BME280;34067;39.548;-76.088;2022-11-03T06:39:41;102700.12;;;7.78;100.00
31331;BME280;34067;39.548;-76.088;2022-11-03T06:42:12;102692.92;;;8.51;100.00
31331;BME280;34067;39.548;-76.088;2022-11-03T06:44:42;102693.00;;;7.51;100.00
31331;BME280;34067;39.548;-76.088;2022-11-03T06:47:20;102696.49;;;8.84;100.00
31331;BME280;34067;39.548;-76.088;2022-11-03T06:49:49;102697.46;;;8.40;100.00
31331;BME280;34067;39.548;-76.088;2022-11-03T06:52:24;102695.75;;;8.10;100.00
31331;BME280;34067;39.548;-76.088;2022-11-03T06:54:58;102694.46;;;7.67;100.00
31331;BME280;34067;39.548;-76.088;2022-11-03T06:57:30;102692.90;;;7.57;100.00
31331;BME280;34067;39.548;-76.088;2022-11-03T07:00:04;102692.31;;;6.63;100.00
31331;BME280;34067;39.548;-76.088;2022-11-03T07:02:51;102694.10;;;7.26;100.00
31331;BME280;34067;39.548;-76.088;2022-11-03T07:05:22;102699.72;;;7.98;100.00
31331;BME280;34067;39.548;-76.088;2022-11-03T07:07:52;102696.96;;;8.30;100.00
31331;BME280;34067;39.548;-76.088;2022-11-03T07:10:23;102696.08;;;7.24;100.00
31331;BME280;34067;39.548;-76.088;2022-11-03T07:12:51;102696.49;;;8.67;100.00
31331;BME280;34067;39.548;-76.088;2022-11-03T07:15:26;102696.17;;;7.47;100.00
31331;BME280;34067;39.548;-76.088;2022-11-03T07:17:55;102699.73;;;6.67;100.00
31331;BME280;34067;39.548;-76.088;2022-11-03T07:20:22;102692.93;;;8.12;100.00
31331;BME280;34067;39.548;-76.088;2022-11-03T07:22:51;102691.19;;;8.43;100.00
31331;BME280;34067;39.548;-76.088;2022-11-03T07:25:21;102686.09;;;8.02;100.00
31331;BME280;34067;39.548;-76.088;2022-11-03T07:27:50;102689.12;;;8.13;100.00
31331;BME280;34067;39.548;-76.088;2022-11-03T07:30:21;102685.10;;;7.24;100.00
31331;BME280;34067;39.548;-76.088;2022-11-03T07:32:52;102684.07;;;8.01;100.00
31331;BME280;34067;39.548;-76.088;2022-11-03T07:35:28;102686.29;;;8.31;100.00
31331;BME280;34067;39.548;-76.088;2022-11-03T07:38:00;102682.44;;;7.12;100.00
31331;BME280;34067;39.548;-76.088;2022-11-03T07:40:32;102686.23;;;6.99;100.00
31331;BME280;34067;39.548;-76.088;2022-11-03T07:43:10;102684.66;;;6.91;100.00
31331;BME280;34067;39.548;-76.088;2022-11-03T07:45:41;102682.33;;;8.21;100.00
31331;BME280;34067;39.548;-76.088;2022-11-03T07:48:27;102678.40;;;7.69;100.00
31331;BME280;34067;39.548;-76.088;2022-11-03T07:51:03;102677.11;;;7.72;100.00
31331;BME280;34067;39.548;-76.088;2022-11-03T07:53:37;102681.22;;;7.15;100.00
31331;BME280;34067;39.548;-76.088;2022-11-03T07:56:17;102679.13;;;7.22;100.00
31331;BME280;34067;39.548;-76.088;2022-11-03T07:58:47;102687.47;;;7.41;100.00
31331;BME280;34067;39.548;-76.088;2022-11-03T08:01:38;102683.07;;;6.50;100.00
31331;BME280;34067;39.548;-76.088;2022-11-03T08:04:10;102681.62;;;7.43;100.00
31331;BME280;34067;39.548;-76.088;2022-11-03T08:06:39;102679.74;;;6.97;100.00
31331;BME280;34067;39.548;-76.088;2022-11-03T08:09:07;102683.32;;;6.77;100.00
31331;BME280;34067;39.548;-76.088;2022-11-03T08:11:35;102690.57;;;7.24;100.00
31331;BME280;34067;39.548;-76.088;2022-11-03T08:14:04;102689.41;;;7.86;100.00
31331;BME280;34067;39.548;-76.088;2022-11-03T08:16:32;102692.82;;;7.46;100.00
31331;BME280;34067;39.548;-76.088;2022-11-03T08:19:00;102693.16;;;8.16;100.00
31331;BME280;34067;39.548;-76.088;2022-11-03T08:21:27;102694.80;;;7.55;100.00
31331;BME280;34067;39.548;-76.088;2022-11-03T08:23:55;102693.10;;;8.15;100.00
31331;BME280;34067;39.548;-76.088;2022-11-03T08:26:24;102693.45;;;6.83;100.00
31331;BME280;34067;39.548;-76.088;2022-11-03T08:28:52;102695.24;;;5.90;100.00
31331;BME280;34067;39.548;-76.088;2022-11-03T08:31:20;102699.73;;;7.89;100.00
31331;BME280;34067;39.548;-76.088;2022-11-03T08:33:48;102703.66;;;7.23;100.00
31331;BME280;34067;39.548;-76.088;2022-11-03T08:36:16;102701.52;;;6.32;100.00
31331;BME280;34067;39.548;-76.088;2022-11-03T08:38:44;102696.02;;;6.44;100.00
31331;BME280;34067;39.548;-76.088;2022-11-03T08:41:12;102697.27;;;7.77;100.00
31331;BME280;34067;39.548;-76.088;2022-11-03T08:43:40;102696.58;;;6.67;100.00
31331;BME280;34067;39.548;-76.088;2022-11-03T08:46:09;102699.45;;;7.43;100.00
31331;BME280;34067;39.548;-76.088;2022-11-03T08:48:37;102700.94;;;6.90;100.00
31331;BME280;34067;39.548;-76.088;2022-11-03T08:51:05;102706.35;;;6.14;100.00
31331;BME280;34067;39.548;-76.088;2022-11-03T08:53:33;102711.69;;;6.86;100.00
31331;BME280;34067;39.548;-76.088;2022-11-03T08:56:01;102715.56;;;6.39;100.00
31331;BME280;34067;39.548;-76.088;2022-11-03T08:58:29;102712.67;;;6.09;100.00
31331;BME280;34067;39.548;-76.088;2022-11-03T09:00:57;102708.19;;;7.10;100.00
31331;BME280;34067;39.548;-76.088;2022-11-03T09:03:25;102705.49;;;6.82;100.00
31331;BME280;34067;39.548;-76.088;2022-11-03T09:05:53;102717.91;;;6.63;100.00
31331;BME280;34067;39.548;-76.088;2022-11-03T09:08:21;102719.61;;;6.32;100.00
31331;BME280;34067;39.548;-76.088;2022-11-03T09:10:49;102718.53;;;6.50;100.00
31331;BME280;34067;39.548;-76.088;2022-11-03T09:13:17;102720.90;;;7.01;100.00
31331;BME280;34067;39.548;-76.088;2022-11-03T09:15:44;102725.11;;;7.14;100.00
31331;BME280;34067;39.548;-76.088;2022-11-03T09:18:12;102723.38;;;5.98;100.00
31331;BME280;34067;39.548;-76.088;2022-11-03T09:20:40;102725.09;;;6.46;100.00
31331;BME280;34067;39.548;-76.088;2022-11-03T09:23:09;102724.80;;;5.94;100.00
31331;BME280;34067;39.548;-76.088;2022-11-03T09:25:37;102731.66;;;7.46;100.00
31331;BME280;34067;39.548;-76.088;2022-11-03T09:28:05;102733.59;;;6.54;100.00
31331;BME280;34067;39.548;-76.088;2022-11-03T09:30:33;102732.11;;;7.30;100.00
31331;BME280;34067;39.548;-76.088;2022-11-03T09:33:02;102733.69;;;6.45;100.00
31331;BME280;34067;39.548;-76.088;2022-11-03T09:35:30;102734.75;;;7.67;100.00
31331;BME280;34067;39.548;-76.088;2022-11-03T09:37:58;102734.97;;;6.94;100.00
31331;BME280;34067;39.548;-76.088;2022-11-03T09:40:26;102741.07;;;6.41;100.00
31331;BME280;34067;39.548;-76.088;2022-11-03T09:42:54;102744.30;;;6.57;100.00
31331;BME280;34067;39.548;-76.088;2022-11-03T09:45:23;102747.61;;;7.40;100.00
31331;BME280;34067;39.548;-76.088;2022-11-03T09:47:51;102743.80;;;6.32;100.00
31331;BME280;34067;39.548;-76.088;2022-11-03T09:50:20;102746.18;;;6.59;100.00
31331;BME280;34067;39.548;-76.088;2022-11-03T09:52:48;102748.97;;;7.16;100.00
31331;BME280;34067;39.548;-76.088;2022-11-03T09:55:19;102750.81;;;7.02;100.00
31331;BME280;34067;39.548;-76.088;2022-11-03T09:57:49;102749.08;;;7.70;100.00
31331;BME280;34067;39.548;-76.088;2022-11-03T10:00:20;102757.14;;;6.30;100.00
31331;BME280;34067;39.548;-76.088;2022-11-03T10:02:48;102755.09;;;6.27;100.00
31331;BME280;34067;39.548;-76.088;2022-11-03T10:05:21;102755.86;;;5.98;100.00
31331;BME280;34067;39.548;-76.088;2022-11-03T10:07:51;102753.88;;;7.00;100.00
31331;BME280;34067;39.548;-76.088;2022-11-03T10:10:21;102754.32;;;6.78;100.00
31331;BME280;34067;39.548;-76.088;2022-11-03T10:12:50;102755.82;;;6.18;100.00
31331;BME280;34067;39.548;-76.088;2022-11-03T10:15:20;102753.33;;;6.16;100.00
31331;BME280;34067;39.548;-76.088;2022-11-03T10:17:50;102757.59;;;5.89;100.00
31331;BME280;34067;39.548;-76.088;2022-11-03T10:20:20;102763.94;;;6.11;100.00
31331;BME280;34067;39.548;-76.088;2022-11-03T10:22:51;102757.30;;;7.02;100.00
31331;BME280;34067;39.548;-76.088;2022-11-03T10:25:37;102766.54;;;7.46;100.00
31331;BME280;34067;39.548;-76.088;2022-11-03T10:28:16;102767.79;;;6.04;100.00
31331;BME280;34067;39.548;-76.088;2022-11-03T10:30:51;102763.52;;;6.39;100.00
31331;BME280;34067;39.548;-76.088;2022-11-03T10:33:30;102763.82;;;6.38;100.00
31331;BME280;34067;39.548;-76.088;2022-11-03T10:35:58;102761.33;;;7.16;100.00
31331;BME280;34067;39.548;-76.088;2022-11-03T10:38:30;102762.94;;;6.27;100.00
31331;BME280;34067;39.548;-76.088;2022-11-03T10:41:11;102761.41;;;7.08;100.00
31331;BME280;34067;39.548;-76.088;2022-11-03T10:43:40;102759.30;;;5.48;100.00
31331;BME280;34067;39.548;-76.088;2022-11-03T10:46:11;102760.57;;;7.31;100.00
31331;BME280;34067;39.548;-76.088;2022-11-03T10:48:39;102762.42;;;6.49;100.00
31331;BME280;34067;39.548;-76.088;2022-11-03T10:51:11;102765.68;;;6.02;100.00
31331;BME280;34067;39.548;-76.088;2022-11-03T10:53:40;102764.81;;;7.36;100.00
31331;BME280;34067;39.548;-76.088;2022-11-03T10:56:09;102767.08;;;5.94;100.00
31331;BME280;34067;39.548;-76.088;2022-11-03T10:58:37;102761.83;;;6.93;100.00
31331;BME280;34067;39.548;-76.088;2022-11-03T11:01:09;102762.34;;;7.50;100.00
31331;BME280;34067;39.548;-76.088;2022-11-03T11:03:41;102763.06;;;7.17;100.00
31331;BME280;34067;39.548;-76.088;2022-11-03T11:06:18;102762.67;;;6.13;100.00
31331;BME280;34067;39.548;-76.088;2022-11-03T11:08:47;102763.75;;;6.69;100.00
31331;BME280;34067;39.548;-76.088;2022-11-03T11:11:16;102769.60;;;6.39;100.00
31331;BME280;34067;39.548;-76.088;2022-11-03T11:13:44;102770.50;;;6.61;100.00
31331;BME280;34067;39.548;-76.088;2022-11-03T11:16:49;102766.18;;;7.08;100.00
31331;BME280;34067;39.548;-76.088;2022-11-03T11:19:17;102766.13;;;6.92;100.00
31331;BME280;34067;39.548;-76.088;2022-11-03T11:21:59;102770.50;;;6.23;100.00
31331;BME280;34067;39.548;-76.088;2022-11-03T11:25:00;102771.71;;;6.93;100.00
31331;BME280;34067;39.548;-76.088;2022-11-03T11:28:10;102775.55;;;6.00;100.00
31331;BME280;34067;39.548;-76.088;2022-11-03T11:31:10;102777.65;;;6.32;100.00
31331;BME280;34067;39.548;-76.088;2022-11-03T11:34:38;102780.22;;;6.90;100.00
31331;BME280;34067;39.548;-76.088;2022-11-03T11:37:34;102782.24;;;7.14;100.00
31331;BME280;34067;39.548;-76.088;2022-11-03T11:40:09;102784.47;;;6.57;100.00
31331;BME280;34067;39.548;-76.088;2022-11-03T11:43:25;102784.90;;;6.98;100.00
31331;BME280;34067;39.548;-76.088;2022-11-03T11:46:59;102787.25;;;6.29;100.00
31331;BME280;34067;39.548;-76.088;2022-11-03T11:49:27;102794.49;;;5.73;100.00
31331;BME280;34067;39.548;-76.088;2022-11-03T11:52:00;102797.38;;;6.04;100.00
31331;BME280;34067;39.548;-76.088;2022-11-03T11:54:28;102802.92;;;6.25;100.00
31331;BME280;34067;39.548;-76.088;2022-11-03T11:56:56;102811.20;;;5.38;100.00
31331;BME280;34067;39.548;-76.088;2022-11-03T11:59:24;102812.69;;;6.48;100.00
31331;BME280;34067;39.548;-76.088;2022-11-03T12:01:54;102815.07;;;6.62;100.00
31331;BME280;34067;39.548;-76.088;2022-11-03T12:04:25;102820.29;;;6.08;100.00
31331;BME280;34067;39.548;-76.088;2022-11-03T12:06:53;102819.31;;;6.07;100.00
31331;BME280;34067;39.548;-76.088;2022-11-03T12:09:22;102824.42;;;6.95;100.00
31331;BME280;34067;39.548;-76.088;2022-11-03T12:11:53;102828.09;;;7.23;100.00
31331;BME280;34067;39.548;-76.088;2022-11-03T12:14:23;102831.73;;;6.49;100.00
31331;BME280;34067;39.548;-76.088;2022-11-03T12:16:51;102830.30;;;7.69;100.00
31331;BME280;34067;39.548;-76.088;2022-11-03T12:19:38;102840.91;;;5.87;100.00
31331;BME280;34067;39.548;-76.088;2022-11-03T12:22:08;102841.64;;;5.74;100.00
31331;BME280;34067;39.548;-76.088;2022-11-03T12:24:45;102840.87;;;5.95;100.00
31331;BME280;34067;39.548;-76.088;2022-11-03T12:27:38;102838.25;;;6.61;100.00
31331;BME280;34067;39.548;-76.088;2022-11-03T12:30:12;102843.80;;;7.27;100.00
31331;BME280;34067;39.548;-76.088;2022-11-03T12:32:41;102842.93;;;6.63;100.00
31331;BME280;34067;39.548;-76.088;2022-11-03T12:35:09;102842.15;;;6.37;100.00
31331;BME280;34067;39.548;-76.088;2022-11-03T12:37:39;102846.49;;;8.16;100.00
31331;BME280;34067;39.548;-76.088;2022-11-03T12:40:08;102854.28;;;7.75;100.00
31331;BME280;34067;39.548;-76.088;2022-11-03T12:42:36;102855.84;;;7.76;100.00
31331;BME280;34067;39.548;-76.088;2022-11-03T12:45:04;102861.96;;;6.61;100.00
31331;BME280;34067;39.548;-76.088;2022-11-03T12:47:32;102869.01;;;7.54;100.00
31331;BME280;34067;39.548;-76.088;2022-11-03T12:50:00;102869.89;;;6.59;100.00
31331;BME280;34067;39.548;-76.088;2022-11-03T12:52:29;102876.38;;;7.09;100.00
31331;BME280;34067;39.548;-76.088;2022-11-03T12:54:57;102875.79;;;6.97;100.00
31331;BME280;34067;39.548;-76.088;2022-11-03T12:57:24;102877.30;;;7.64;100.00